createdAt,value
2018-01-14T00:00:05.384Z,101505.51
2018-01-14T00:02:32.895Z,101507.41
2018-01-14T00:05:00.436Z,101500.57
2018-01-14T00:07:27.913Z,101501.87
2018-01-14T00:09:55.546Z,101505.08
2018-01-14T00:12:23.059Z,101501.92
2018-01-14T00:14:50.550Z,101499.48
2018-01-14T00:17:18.026Z,101494.83
2018-01-14T00:19:45.573Z,101485.84
2018-01-14T00:22:13.074Z,101494.91
2018-01-14T00:24:40.561Z,101494.67
2018-01-14T00:27:08.123Z,101488.73
2018-01-14T00:29:35.569Z,101492.36
2018-01-14T00:32:03.114Z,101490.22
2018-01-14T00:34:30.608Z,101489.17
2018-01-14T00:36:58.472Z,101486.09
2018-01-14T00:39:25.918Z,101484.26
2018-01-14T00:41:53.437Z,101479.44
2018-01-14T00:44:20.973Z,101475.19
2018-01-14T00:46:48.481Z,101474.88
2018-01-14T00:49:15.987Z,101481.11
2018-01-14T00:51:43.444Z,101467.22
2018-01-14T00:54:10.912Z,101468.81
2018-01-14T00:56:38.487Z,101465.86
2018-01-14T00:59:05.978Z,101465.66
2018-01-14T01:01:33.503Z,101460.85
2018-01-14T01:04:00.965Z,101462.94
2018-01-14T01:06:28.543Z,101458.41
2018-01-14T01:08:56.022Z,101456.00
2018-01-14T01:11:23.490Z,101463.22
2018-01-14T01:13:51.006Z,101457.30
2018-01-14T01:16:18.451Z,101464.00
2018-01-14T01:18:46.015Z,101466.11
2018-01-14T01:21:13.597Z,101459.94
2018-01-14T01:23:41.080Z,101466.47
2018-01-14T01:26:08.561Z,101467.52
2018-01-14T01:28:36.058Z,101464.79
2018-01-14T01:31:03.559Z,101464.23
2018-01-14T01:33:31.046Z,101457.27
2018-01-14T01:35:59.625Z,101459.20
2018-01-14T01:38:27.083Z,101457.80
2018-01-14T01:40:54.629Z,101456.36
2018-01-14T01:43:22.476Z,101458.80
2018-01-14T01:45:49.980Z,101455.07
2018-01-14T01:48:17.512Z,101455.77
2018-01-14T01:50:44.973Z,101453.50
2018-01-14T01:53:12.604Z,101453.48
2018-01-14T01:55:40.189Z,101453.77
2018-01-14T01:58:07.673Z,101452.56
2018-01-14T02:00:35.328Z,101449.09
2018-01-14T02:03:02.850Z,101440.23
2018-01-14T02:05:30.298Z,101440.23
2018-01-14T02:07:57.864Z,101442.93
2018-01-14T02:10:25.483Z,101437.36
2018-01-14T02:12:52.998Z,101450.56
2018-01-14T02:15:20.469Z,101449.95
2018-01-14T02:17:47.969Z,101448.94
2018-01-14T02:20:15.439Z,101448.16
2018-01-14T02:22:42.944Z,101449.84
2018-01-14T02:25:10.502Z,101446.11
2018-01-14T02:27:38.013Z,101435.75
2018-01-14T02:30:05.575Z,101437.84
2018-01-14T02:32:33.062Z,101432.24
2018-01-14T02:35:00.579Z,101433.84
2018-01-14T02:37:28.075Z,101438.57
2018-01-14T02:39:55.590Z,101433.22
2018-01-14T02:42:23.475Z,101437.77
2018-01-14T02:44:50.938Z,101433.55
2018-01-14T02:47:18.437Z,101427.91
2018-01-14T02:49:45.929Z,101432.58
2018-01-14T02:52:13.408Z,101433.44
2018-01-14T02:54:40.946Z,101431.50
2018-01-14T02:57:08.448Z,101427.67
2018-01-14T02:59:36.184Z,101426.80
2018-01-14T03:02:03.724Z,101434.23
2018-01-14T03:04:31.205Z,101426.58
2018-01-14T03:06:58.837Z,101422.23
2018-01-14T03:09:26.306Z,101423.52
2018-01-14T03:11:53.808Z,101428.12
2018-01-14T03:14:21.259Z,101435.36
2018-01-14T03:16:48.748Z,101435.54
2018-01-14T03:19:16.227Z,101430.72
2018-01-14T03:21:43.705Z,101431.44
2018-01-14T03:24:12.143Z,101434.25
2018-01-14T03:26:40.478Z,101430.73
2018-01-14T03:29:08.027Z,101436.41
2018-01-14T03:31:36.478Z,101445.77
2018-01-14T03:34:04.069Z,101446.52
2018-01-14T03:36:31.607Z,101446.16
2018-01-14T03:38:59.107Z,101451.59
2018-01-14T03:41:26.584Z,101454.14
2018-01-14T03:43:54.147Z,101450.63
2018-01-14T03:46:21.666Z,101459.30
2018-01-14T03:48:49.207Z,101455.26
2018-01-14T03:51:16.674Z,101453.95
2018-01-14T03:53:44.149Z,101459.19
2018-01-14T03:56:11.637Z,101460.05
2018-01-14T03:58:39.114Z,101454.48
2018-01-14T04:01:06.978Z,101460.17
2018-01-14T04:03:35.666Z,101449.23
2018-01-14T04:06:04.761Z,101446.27
2018-01-14T04:08:32.238Z,101440.41
2018-01-14T04:10:59.779Z,101443.23
2018-01-14T04:13:27.254Z,101436.31
2018-01-14T04:15:55.030Z,101430.74
2018-01-14T04:18:22.498Z,101436.58
2018-01-14T04:20:53.232Z,101433.67
2018-01-14T04:23:20.782Z,101434.56
2018-01-14T04:25:48.347Z,101427.55
2018-01-14T04:28:15.889Z,101425.85
2018-01-14T04:30:43.457Z,101430.79
2018-01-14T04:33:11.009Z,101439.24
2018-01-14T04:35:38.570Z,101439.45
2018-01-14T04:38:06.867Z,101433.87
2018-01-14T04:40:34.405Z,101433.26
2018-01-14T04:43:07.168Z,101423.59
2018-01-14T04:45:34.719Z,101423.19
2018-01-14T04:48:02.925Z,101424.71
2018-01-14T04:50:31.021Z,101420.33
2018-01-14T04:52:59.399Z,101428.66
2018-01-14T04:55:27.889Z,101421.47
2018-01-14T04:57:55.510Z,101425.50
2018-01-14T05:00:23.048Z,101418.88
2018-01-14T05:02:50.564Z,101418.80
2018-01-14T05:05:18.088Z,101429.35
2018-01-14T05:07:45.553Z,101440.55
2018-01-14T05:10:13.077Z,101441.95
2018-01-14T05:12:40.621Z,101434.36
2018-01-14T05:15:08.105Z,101428.68
2018-01-14T05:17:35.606Z,101430.78
2018-01-14T05:20:03.212Z,101431.09
2018-01-14T05:22:30.687Z,101428.48
2018-01-14T05:24:58.242Z,101423.64
2018-01-14T05:27:25.804Z,101428.58
2018-01-14T05:29:53.446Z,101425.98
2018-01-14T05:32:20.936Z,101441.22
2018-01-14T05:34:48.506Z,101449.80
2018-01-14T05:37:16.009Z,101448.30
2018-01-14T05:39:43.536Z,101445.69
2018-01-14T05:42:11.011Z,101447.50
2018-01-14T05:44:38.515Z,101451.72
2018-01-14T05:47:06.010Z,101455.22
2018-01-14T05:49:33.525Z,101450.89
2018-01-14T05:52:00.999Z,101462.66
2018-01-14T05:54:28.526Z,101451.37
2018-01-14T05:56:56.094Z,101460.86
2018-01-14T05:59:23.621Z,101455.31
2018-01-14T06:01:51.085Z,101461.77
2018-01-14T06:04:18.746Z,101457.84
2018-01-14T06:06:46.265Z,101452.61
2018-01-14T06:09:13.924Z,101452.87
2018-01-14T06:11:41.427Z,101457.05
2018-01-14T06:14:09.017Z,101449.77
2018-01-14T06:16:36.620Z,101441.92
2018-01-14T06:19:04.114Z,101451.21
2018-01-14T06:21:31.607Z,101448.76
2018-01-14T06:23:59.174Z,101443.41
2018-01-14T06:26:26.686Z,101440.06
2018-01-14T06:28:54.202Z,101446.69
2018-01-14T06:31:21.792Z,101447.48
2018-01-14T06:33:49.229Z,101445.51
2018-01-14T06:36:16.764Z,101452.97
2018-01-14T06:38:44.248Z,101457.17
2018-01-14T06:41:11.801Z,101450.86
2018-01-14T06:43:39.276Z,101451.15
2018-01-14T06:46:06.838Z,101452.81
2018-01-14T06:48:34.346Z,101462.95
2018-01-14T06:51:02.138Z,101462.50
2018-01-14T06:53:30.573Z,101457.34
2018-01-14T06:55:58.126Z,101459.34
2018-01-14T06:58:25.655Z,101463.45
2018-01-14T07:00:53.150Z,101462.91
2018-01-14T07:03:20.625Z,101469.89
2018-01-14T07:05:48.094Z,101468.84
2018-01-14T07:08:15.618Z,101473.08
2018-01-14T07:10:43.094Z,101472.41
2018-01-14T07:13:10.645Z,101467.63
2018-01-14T07:15:38.320Z,101469.38
2018-01-14T07:18:05.967Z,101464.95
2018-01-14T07:20:33.517Z,101471.01
2018-01-14T07:23:00.995Z,101477.77
2018-01-14T07:25:28.595Z,101476.36
2018-01-14T07:27:56.112Z,101482.89
2018-01-14T07:30:23.587Z,101482.89
2018-01-14T07:32:51.141Z,101471.45
2018-01-14T07:35:18.646Z,101476.39
2018-01-14T07:37:46.208Z,101469.35
2018-01-14T07:40:13.954Z,101472.57
2018-01-14T07:42:41.977Z,101471.20
2018-01-14T07:45:09.565Z,101467.79
2018-01-14T07:47:37.036Z,101467.28
2018-01-14T07:50:05.229Z,101464.67
2018-01-14T07:52:32.734Z,101460.94
2018-01-14T07:55:00.226Z,101459.95
2018-01-14T07:57:27.769Z,101462.24
2018-01-14T07:59:55.262Z,101462.66
2018-01-14T08:02:22.764Z,101469.20
2018-01-14T08:04:50.279Z,101473.66
2018-01-14T08:07:17.793Z,101472.31
2018-01-14T08:09:45.380Z,101472.16
2018-01-14T08:12:12.878Z,101472.95
2018-01-14T08:14:45.451Z,101473.66
2018-01-14T08:17:12.923Z,101469.86
2018-01-14T08:19:40.475Z,101466.39
2018-01-14T08:22:07.974Z,101470.24
2018-01-14T08:24:35.720Z,101470.91
2018-01-14T08:27:04.053Z,101470.72
2018-01-14T08:29:31.678Z,101469.41
2018-01-14T08:31:59.234Z,101472.66
2018-01-14T08:34:26.784Z,101482.23
2018-01-14T08:36:54.875Z,101481.40
2018-01-14T08:39:22.390Z,101484.97
2018-01-14T08:41:50.030Z,101486.40
2018-01-14T08:44:17.675Z,101478.84
2018-01-14T08:46:45.325Z,101486.11
2018-01-14T08:49:12.846Z,101484.37
2018-01-14T08:51:40.379Z,101489.70
2018-01-14T08:54:12.904Z,101476.72
2018-01-14T08:56:40.479Z,101486.06
2018-01-14T08:59:08.016Z,101485.29
2018-01-14T09:01:40.959Z,101485.13
2018-01-14T09:04:08.433Z,101482.50
2018-01-14T09:06:36.070Z,101489.36
2018-01-14T09:09:04.626Z,101486.80
2018-01-14T09:11:32.302Z,101491.75
2018-01-14T09:13:59.891Z,101494.81
2018-01-14T09:16:27.525Z,101493.23
2018-01-14T09:18:55.026Z,101483.00
2018-01-14T09:21:22.613Z,101480.98
2018-01-14T09:23:51.375Z,101479.44
2018-01-14T09:26:20.014Z,101487.89
2018-01-14T09:28:47.926Z,101483.17
2018-01-14T09:31:15.471Z,101479.70
2018-01-14T09:33:43.110Z,101481.27
2018-01-14T09:36:10.705Z,101481.70
2018-01-14T09:38:38.234Z,101481.85
2018-01-14T09:41:05.845Z,101477.83
2018-01-14T09:43:33.555Z,101472.09
2018-01-14T09:46:01.109Z,101466.97
2018-01-14T09:48:28.698Z,101465.06
2018-01-14T09:50:56.303Z,101465.68
2018-01-14T09:53:23.795Z,101471.25
2018-01-14T09:55:51.334Z,101466.84
2018-01-14T09:58:18.858Z,101466.53
2018-01-14T10:00:46.405Z,101468.98
2018-01-14T10:03:19.909Z,101467.00
2018-01-14T10:05:49.234Z,101470.31
2018-01-14T10:08:16.813Z,101466.95
2018-01-14T10:10:44.387Z,101469.68
2018-01-14T10:13:11.934Z,101459.71
2018-01-14T10:15:39.459Z,101466.28
2018-01-14T10:18:06.921Z,101468.10
2018-01-14T10:20:34.474Z,101464.39
2018-01-14T10:23:02.019Z,101466.20
2018-01-14T10:25:29.589Z,101466.00
2018-01-14T10:27:57.149Z,101462.69
2018-01-14T10:30:24.751Z,101454.95
2018-01-14T10:32:52.252Z,101456.38
2018-01-14T10:35:20.352Z,101454.37
2018-01-14T10:37:47.840Z,101453.17
2018-01-14T10:40:15.387Z,101451.56
2018-01-14T10:42:43.147Z,101448.95
2018-01-14T10:45:10.688Z,101449.38
2018-01-14T10:47:38.248Z,101445.85
2018-01-14T10:50:05.776Z,101446.55
2018-01-14T10:52:33.259Z,101446.86
2018-01-14T10:55:00.875Z,101438.78
2018-01-14T10:57:28.506Z,101445.45
2018-01-14T10:59:56.022Z,101441.73
2018-01-14T11:02:23.594Z,101445.86
2018-01-14T11:04:51.495Z,101442.84
2018-01-14T11:07:19.068Z,101434.17
2018-01-14T11:09:46.673Z,101433.17
2018-01-14T11:12:14.255Z,101432.08
2018-01-14T11:14:41.806Z,101424.80
2018-01-14T11:17:09.400Z,101428.03
2018-01-14T11:19:36.949Z,101423.50
2018-01-14T11:22:04.440Z,101426.03
2018-01-14T11:24:32.013Z,101412.80
2018-01-14T11:26:59.483Z,101414.84
2018-01-14T11:32:27.802Z,101417.43
2018-01-14T11:34:55.404Z,101417.62
2018-01-14T11:37:22.893Z,101411.54
2018-01-14T11:39:50.448Z,101401.58
2018-01-14T11:42:17.985Z,101400.20
2018-01-14T11:44:45.513Z,101409.42
2018-01-14T11:47:13.185Z,101399.38
2018-01-14T11:49:41.144Z,101395.15
2018-01-14T11:52:08.765Z,101389.31
2018-01-14T11:54:36.363Z,101387.46
2018-01-14T11:57:03.889Z,101384.53
2018-01-14T11:59:31.398Z,101381.69
2018-01-14T12:01:59.222Z,101386.60
2018-01-14T12:04:31.794Z,101381.80
2018-01-14T12:06:59.435Z,101376.02
2018-01-14T12:09:26.953Z,101370.40
2018-01-14T12:11:54.470Z,101376.37
2018-01-14T12:14:22.021Z,101376.86
2018-01-14T12:16:49.552Z,101378.92
2018-01-14T12:19:17.657Z,101365.80
2018-01-14T12:21:45.327Z,101363.11
2018-01-14T12:24:12.873Z,101368.91
2018-01-14T12:26:40.381Z,101363.70
2018-01-14T12:29:07.928Z,101367.93
2018-01-14T12:31:36.515Z,101365.58
2018-01-14T12:34:35.632Z,101363.18
2018-01-14T12:37:03.134Z,101364.09
2018-01-14T12:39:30.799Z,101360.55
2018-01-14T12:41:58.286Z,101366.41
2018-01-14T12:44:25.815Z,101360.56
2018-01-14T12:46:53.389Z,101371.41
2018-01-14T12:49:20.923Z,101355.19
2018-01-14T12:51:48.461Z,101358.96
2018-01-14T12:54:25.742Z,101351.94
2018-01-14T12:56:53.330Z,101358.91
2018-01-14T12:59:20.961Z,101356.27
2018-01-14T13:01:49.160Z,101351.30
2018-01-14T13:04:19.455Z,101352.34
2018-01-14T13:06:47.168Z,101355.82
2018-01-14T13:09:14.780Z,101352.84
2018-01-14T13:11:42.458Z,101353.94
2018-01-14T13:14:10.025Z,101355.48
2018-01-14T13:16:37.662Z,101357.23
2018-01-14T13:19:06.379Z,101351.91
2018-01-14T13:21:33.858Z,101355.66
2018-01-14T13:24:01.401Z,101355.33
2018-01-14T13:26:29.084Z,101348.02
2018-01-14T13:28:56.681Z,101358.86
2018-01-14T13:31:24.416Z,101350.70
2018-01-14T13:33:51.943Z,101353.14
2018-01-14T13:36:19.681Z,101347.42
2018-01-14T13:38:47.212Z,101345.01
2018-01-14T13:41:14.755Z,101349.23
2018-01-14T13:43:42.274Z,101355.74
2018-01-14T13:46:09.906Z,101349.89
2018-01-14T13:48:37.497Z,101354.03
2018-01-14T13:51:05.133Z,101350.18
2018-01-14T13:53:32.725Z,101351.60
2018-01-14T13:56:00.306Z,101349.72
2018-01-14T13:58:27.782Z,101353.95
2018-01-14T14:00:55.308Z,101352.77
2018-01-14T14:03:23.199Z,101350.24
2018-01-14T14:05:50.707Z,101338.92
2018-01-14T14:08:18.270Z,101344.70
2018-01-14T14:10:45.794Z,101350.67
2018-01-14T14:13:13.341Z,101352.50
2018-01-14T14:15:40.844Z,101346.84
2018-01-14T14:18:08.347Z,101347.47
2018-01-14T14:20:35.865Z,101346.61
2018-01-14T14:23:03.356Z,101344.99
2018-01-14T14:25:31.110Z,101348.75
2018-01-14T14:27:58.647Z,101349.09
2018-01-14T14:30:26.146Z,101352.06
2018-01-14T14:32:53.639Z,101352.89
2018-01-14T14:35:21.173Z,101349.66
2018-01-14T14:37:50.416Z,101338.47
2018-01-14T14:40:17.874Z,101353.84
2018-01-14T14:42:45.385Z,101343.25
2018-01-14T14:45:12.898Z,101345.69
2018-01-14T14:47:40.499Z,101339.72
2018-01-14T14:50:07.998Z,101340.52
2018-01-14T14:52:35.865Z,101343.56
2018-01-14T14:55:03.395Z,101347.09
2018-01-14T14:57:30.877Z,101350.53
2018-01-14T14:59:58.495Z,101346.11
2018-01-14T15:02:26.093Z,101342.36
2018-01-14T15:04:53.903Z,101347.81
2018-01-14T15:07:21.539Z,101341.46
2018-01-14T15:09:49.071Z,101341.98
2018-01-14T15:12:16.729Z,101343.19
2018-01-14T15:14:44.284Z,101351.03
2018-01-14T15:17:11.776Z,101352.14
2018-01-14T15:19:39.277Z,101349.63
2018-01-14T15:22:06.967Z,101354.38
2018-01-14T15:24:34.464Z,101349.62
2018-01-14T15:27:02.116Z,101351.66
2018-01-14T15:29:29.651Z,101350.72
2018-01-14T15:31:57.137Z,101346.80
2018-01-14T15:34:24.720Z,101352.34
2018-01-14T15:36:52.225Z,101348.83
2018-01-14T15:39:19.862Z,101345.20
2018-01-14T15:41:47.368Z,101346.69
2018-01-14T15:44:14.890Z,101345.30
2018-01-14T15:46:42.427Z,101343.96
2018-01-14T15:49:09.998Z,101337.23
2018-01-14T15:51:37.471Z,101340.95
2018-01-14T15:54:04.962Z,101348.41
2018-01-14T15:56:32.486Z,101344.06
2018-01-14T15:59:00.047Z,101351.04
2018-01-14T16:01:27.747Z,101344.69
2018-01-14T16:03:55.394Z,101344.79
2018-01-14T16:06:22.918Z,101338.92
2018-01-14T16:08:50.520Z,101344.79
2018-01-14T16:11:18.010Z,101345.59
2018-01-14T16:13:48.840Z,101337.83
2018-01-14T16:16:16.552Z,101356.70
2018-01-14T16:18:44.216Z,101347.20
2018-01-14T16:21:11.710Z,101346.80
2018-01-14T16:23:39.368Z,101350.03
2018-01-14T16:26:06.856Z,101341.86
2018-01-14T16:28:34.390Z,101342.58
2018-01-14T16:31:01.947Z,101344.69
2018-01-14T16:33:29.488Z,101345.59
2018-01-14T16:35:57.011Z,101353.66
2018-01-14T16:38:24.584Z,101346.69
2018-01-14T16:40:52.099Z,101347.31
2018-01-14T16:43:19.698Z,101339.75
2018-01-14T16:45:47.217Z,101343.86
2018-01-14T16:48:14.780Z,101341.23
2018-01-14T16:50:42.269Z,101345.00
2018-01-14T16:53:09.773Z,101340.23
2018-01-14T16:55:37.294Z,101346.69
2018-01-14T16:58:04.880Z,101351.34
2018-01-14T17:00:32.373Z,101350.24
2018-01-14T17:02:59.865Z,101350.14
2018-01-14T17:05:27.451Z,101351.04
2018-01-14T17:07:55.050Z,101349.31
2018-01-14T17:10:22.624Z,101344.58
2018-01-14T17:12:50.198Z,101351.04
2018-01-14T17:15:17.729Z,101346.80
2018-01-14T17:17:45.261Z,101348.83
2018-01-14T17:20:12.753Z,101352.14
2018-01-14T17:22:40.312Z,101345.89
2018-01-14T17:25:07.970Z,101335.51
2018-01-14T17:27:35.558Z,101331.89
2018-01-14T17:30:03.096Z,101340.55
2018-01-14T17:32:30.662Z,101338.72
2018-01-14T17:34:58.112Z,101337.30
2018-01-14T17:37:25.729Z,101335.99
2018-01-14T17:39:53.302Z,101329.44
2018-01-14T17:42:20.871Z,101331.47
2018-01-14T17:44:48.776Z,101334.78
2018-01-14T17:47:16.311Z,101334.78
2018-01-14T17:49:44.028Z,101325.44
2018-01-14T17:52:11.555Z,101330.95
2018-01-14T17:54:39.138Z,101334.99
2018-01-14T17:57:06.717Z,101333.99
2018-01-14T17:59:34.306Z,101331.98
2018-01-14T18:02:01.888Z,101343.06
2018-01-14T18:04:29.475Z,101341.17
2018-01-14T18:06:57.362Z,101331.27
2018-01-14T18:09:24.938Z,101339.03
2018-01-14T18:11:52.494Z,101341.55
2018-01-14T18:14:20.161Z,101331.68
2018-01-14T18:16:59.472Z,101332.98
2018-01-14T18:19:27.055Z,101342.96
2018-01-14T18:21:54.546Z,101340.86
2018-01-14T18:24:22.042Z,101345.37
2018-01-14T18:26:49.685Z,101351.14
2018-01-14T18:29:17.196Z,101340.34
2018-01-14T18:31:44.690Z,101351.94
2018-01-14T18:34:12.197Z,101355.97
2018-01-14T18:36:44.847Z,101345.00
2018-01-14T18:39:12.415Z,101342.34
2018-01-14T18:41:40.247Z,101346.38
2018-01-14T18:44:07.776Z,101338.13
2018-01-14T18:46:35.375Z,101339.92
2018-01-14T18:49:02.988Z,101339.92
2018-01-14T18:51:30.553Z,101337.92
2018-01-14T18:53:58.050Z,101340.75
2018-01-14T18:56:25.702Z,101342.76
2018-01-14T18:58:53.260Z,101340.34
2018-01-14T19:01:21.638Z,101337.92
2018-01-14T19:03:49.261Z,101333.48
2018-01-14T19:06:16.792Z,101334.48
2018-01-14T19:08:44.353Z,101336.52
2018-01-14T19:11:11.915Z,101337.00
2018-01-14T19:13:39.712Z,101330.55
2018-01-14T19:16:17.098Z,101333.27
2018-01-14T19:18:44.691Z,101331.58
2018-01-14T19:21:12.314Z,101328.75
2018-01-14T19:23:39.913Z,101328.95
2018-01-14T19:26:07.594Z,101329.95
2018-01-14T19:28:35.088Z,101333.38
2018-01-14T19:31:02.626Z,101332.37
2018-01-14T19:33:30.180Z,101329.95
2018-01-14T19:35:57.715Z,101329.85
2018-01-14T19:38:25.234Z,101318.05
2018-01-14T19:40:53.005Z,101324.51
2018-01-14T19:43:20.612Z,101319.37
2018-01-14T19:45:48.163Z,101324.61
2018-01-14T19:48:15.781Z,101317.64
2018-01-14T19:50:43.467Z,101310.67
2018-01-14T19:53:11.053Z,101309.98
2018-01-14T19:55:38.717Z,101298.29
2018-01-14T19:58:06.208Z,101294.95
2018-01-14T20:00:34.848Z,101297.98
2018-01-14T20:03:02.435Z,101293.73
2018-01-14T20:05:29.980Z,101288.11
2018-01-14T20:07:57.587Z,101281.05
2018-01-14T20:10:25.285Z,101288.11
2018-01-14T20:12:52.810Z,101278.94
2018-01-14T20:15:20.329Z,101279.42
2018-01-14T20:17:48.808Z,101272.77
2018-01-14T20:20:16.727Z,101271.66
2018-01-14T20:22:44.271Z,101273.28
2018-01-14T20:25:11.933Z,101280.14
2018-01-14T20:27:39.488Z,101274.28
2018-01-14T20:30:07.034Z,101265.62
2018-01-14T20:32:35.003Z,101276.70
2018-01-14T20:35:02.510Z,101277.80
2018-01-14T20:37:30.040Z,101278.63
2018-01-14T20:39:57.735Z,101272.28
2018-01-14T20:42:26.150Z,101279.04
2018-01-14T20:44:55.506Z,101275.80
2018-01-14T20:47:23.105Z,101270.24
2018-01-14T20:49:50.976Z,101264.73
2018-01-14T20:52:18.581Z,101263.21
2018-01-14T20:54:46.274Z,101269.55
2018-01-14T20:57:14.035Z,101271.56
2018-01-14T20:59:41.558Z,101270.34
2018-01-14T21:02:09.101Z,101262.38
2018-01-14T21:04:36.728Z,101273.91
2018-01-14T21:07:04.235Z,101275.80
2018-01-14T21:09:31.776Z,101273.59
2018-01-14T21:12:00.164Z,101274.18
2018-01-14T21:14:27.782Z,101269.45
2018-01-14T21:16:55.304Z,101265.41
2018-01-14T21:19:22.864Z,101260.37
2018-01-14T21:21:50.366Z,101253.00
2018-01-14T21:24:17.916Z,101257.86
2018-01-14T21:26:45.481Z,101253.94
2018-01-14T21:29:12.995Z,101255.73
2018-01-14T21:31:40.654Z,101252.62
2018-01-14T21:34:08.276Z,101259.17
2018-01-14T21:36:36.098Z,101253.11
2018-01-14T21:39:03.801Z,101249.07
2018-01-14T21:41:31.795Z,101254.63
2018-01-14T21:43:59.308Z,101252.52
2018-01-14T21:46:26.826Z,101243.73
2018-01-14T21:48:54.322Z,101257.55
2018-01-14T21:51:21.964Z,101257.76
2018-01-14T21:53:49.728Z,101255.34
2018-01-14T21:56:17.200Z,101254.31
2018-01-14T21:58:44.729Z,101251.41
2018-01-14T22:01:12.384Z,101250.80
2018-01-14T22:03:40.969Z,101240.92
2018-01-14T22:06:08.579Z,101238.31
2018-01-14T22:08:36.182Z,101244.23
2018-01-14T22:11:03.802Z,101242.52
2018-01-14T22:13:31.308Z,101247.96
2018-01-14T22:15:58.868Z,101245.06
2018-01-14T22:18:26.364Z,101246.27
2018-01-14T22:20:54.502Z,101251.71
2018-01-14T22:23:22.018Z,101246.75
2018-01-14T22:25:50.440Z,101241.71
2018-01-14T22:28:18.005Z,101244.44
2018-01-14T22:30:45.565Z,101238.88
2018-01-14T22:33:13.068Z,101234.56
2018-01-14T22:35:40.889Z,101239.39
2018-01-14T22:38:08.459Z,101233.36
2018-01-14T22:40:35.971Z,101234.56
2018-01-14T22:43:03.493Z,101222.77
2018-01-14T22:45:31.004Z,101228.80
2018-01-14T22:47:58.525Z,101223.77
2018-01-14T22:50:26.082Z,101218.10
2018-01-14T22:52:53.712Z,101218.62
2018-01-14T22:55:21.235Z,101217.10
2018-01-14T22:57:48.725Z,101212.48
2018-01-14T23:00:17.134Z,101212.96
2018-01-14T23:02:44.795Z,101204.78
2018-01-14T23:05:17.283Z,101204.52
2018-01-14T23:07:44.763Z,101205.41
2018-01-14T23:10:12.309Z,101203.98
2018-01-14T23:12:39.941Z,101192.08
2018-01-14T23:15:08.361Z,101189.87
2018-01-14T23:17:35.894Z,101196.63
2018-01-14T23:20:03.760Z,101195.73
2018-01-14T23:22:31.399Z,101191.17
2018-01-14T23:24:58.984Z,101183.92
2018-01-14T23:27:26.545Z,101178.84
2018-01-14T23:29:54.079Z,101174.22
2018-01-14T23:32:21.598Z,101165.53
2018-01-14T23:34:49.088Z,101167.64
2018-01-14T23:37:16.923Z,101166.33
2018-01-14T23:39:44.450Z,101159.75
2018-01-14T23:42:12.123Z,101153.02
2018-01-14T23:44:39.718Z,101153.80
2018-01-14T23:47:07.333Z,101148.75
2018-01-14T23:49:34.998Z,101142.70
2018-01-14T23:52:02.629Z,101143.67
2018-01-14T23:54:30.194Z,101139.73
2018-01-14T23:56:57.842Z,101137.42
2018-01-14T23:59:25.372Z,101140.73
